OAKB/KBL METAR and TAF weather

Enter ICAO airport designator
Station Type Date Time Source
OAKB METAR 2019/07/17 18:50 UTC NOAA

OAKB 171850Z VRB04KT CAVOK 24/16 Q1012 NOSIG RMK A2991 BLU BLU


Station Type Date Time Source
OAKB Decoded METAR 2019/07/17 18:50 UTC NOAA

Kabul Airport, Afghanistan (OAKB) 34-38N 069-12E
Jul 17, 2019 - 02:50 PM EDT / 2019.07.17 1850 UTC
Wind: Variable at 5 MPH (4 KT):0
Visibility: greater than 7 mile(s):0
Temperature: 75 F (24 C)
Dew Point: 60 F (16 C)
Relative Humidity: 60%
Pressure (altimeter): 29.88 in. Hg (1012 hPa)
ob: OAKB 171850Z VRB04KT CAVOK 24/16 Q1012 NOSIG RMK A2991 BLU BLU
cycle: 19

Station Type Date Time Source
OAKB TAF 2019/07/17 18:05 UTC NOAA

TAF OAKB 171705Z 1718/1818 VRB02KT CAVOK PROB30 1801/1804 5000 BR
BECMG 1806/1808 36012KT FEW100
BECMG 1811/1812 02015G25KT

Example: see airport list